Time;durP1;ratioP1;P1;durP2;ratioP2;P2;SDS_P1;SDS_P2;PMS_P1;PMS_P2;Temp;Humidity;BMP_temperature;BMP_pressure;BME280_temperature;BME280_humidity;BME280_pressure;Samples;Min_cycle;Max_cycle;Signal;HPM_P1;HPM_P2
2023/05/26 00:00:26;;;;;;;9.88;1.95;;;16.80;99.90;;;;;;4957130;28;20201;-75
2023/05/26 00:02:57;;;;;;;11.55;2.10;;;16.80;99.90;;;;;;4956013;28;20235;-74
2023/05/26 00:05:28;;;;;;;9.70;2.10;;;16.80;99.90;;;;;;4956285;28;20679;-75
2023/05/26 00:07:59;;;;;;;12.38;1.75;;;16.70;99.90;;;;;;4957448;28;20724;-76
2023/05/26 00:10:30;;;;;;;12.73;2.00;;;16.60;99.90;;;;;;4955456;28;20209;-75
2023/05/26 00:13:04;;;;;;;9.73;1.85;;;16.60;99.90;;;;;;4956832;28;20205;-75
2023/05/26 00:15:35;;;;;;;12.23;1.83;;;16.60;99.90;;;;;;4956934;28;20295;-74
2023/05/26 00:18:06;;;;;;;11.80;1.33;;;16.60;99.90;;;;;;4956493;28;20237;-77
2023/05/26 00:20:38;;;;;;;7.13;1.73;;;16.60;99.90;;;;;;4955999;28;20209;-75
2023/05/26 00:23:09;;;;;;;7.28;1.60;;;16.60;99.90;;;;;;4955701;28;20225;-76
2023/05/26 00:25:40;;;;;;;10.15;1.85;;;16.60;99.90;;;;;;4956643;28;20197;-76
2023/05/26 00:28:13;;;;;;;6.57;1.50;;;16.60;99.90;;;;;;4956455;28;20197;-75
2023/05/26 00:30:44;;;;;;;10.05;2.35;;;16.60;99.90;;;;;;4954426;28;20567;-75
2023/05/26 00:33:15;;;;;;;7.97;1.35;;;16.60;99.90;;;;;;4958352;28;20215;-76
2023/05/26 00:35:46;;;;;;;10.65;1.80;;;16.60;99.90;;;;;;4956069;28;20201;-75
2023/05/26 00:38:18;;;;;;;11.35;1.60;;;16.50;99.90;;;;;;4956377;28;20189;-76
2023/05/26 00:40:49;;;;;;;7.45;1.23;;;16.50;99.90;;;;;;4956253;28;20200;-75
2023/05/26 00:43:22;;;;;;;9.15;1.60;;;16.50;99.90;;;;;;4955430;28;20626;-75
2023/05/26 00:45:53;;;;;;;9.10;1.52;;;16.50;99.90;;;;;;4956074;28;20193;-76
2023/05/26 00:48:24;;;;;;;9.02;1.50;;;16.50;99.90;;;;;;4954693;28;20745;-77
2023/05/26 00:50:56;;;;;;;5.75;1.25;;;16.40;99.90;;;;;;4955578;28;20205;-75
2023/05/26 00:53:28;;;;;;;6.40;1.17;;;16.30;99.90;;;;;;4956004;28;20283;-75
2023/05/26 00:56:00;;;;;;;6.78;1.17;;;16.20;99.90;;;;;;4955987;28;20193;-74
2023/05/26 00:58:33;;;;;;;10.50;1.85;;;16.10;99.90;;;;;;4954900;28;20236;-74
2023/05/26 01:01:04;;;;;;;8.57;1.52;;;16.10;99.90;;;;;;4955638;28;20693;-76
2023/05/26 01:03:36;;;;;;;8.38;1.38;;;16.10;99.90;;;;;;4955136;29;20204;-76
2023/05/26 01:06:08;;;;;;;7.95;1.35;;;16.00;99.90;;;;;;4955812;28;20552;-76
2023/05/26 01:08:39;;;;;;;7.90;1.73;;;16.00;99.90;;;;;;4955232;28;20215;-75
2023/05/26 01:11:16;;;;;;;9.10;1.40;;;16.00;99.90;;;;;;4955699;28;20712;-76
2023/05/26 01:13:57;;;;;;;10.43;1.40;;;16.10;99.90;;;;;;4955015;28;20408;-76
2023/05/26 01:16:32;;;;;;;8.85;1.17;;;16.10;99.90;;;;;;4955299;28;20259;-75
2023/05/26 01:19:16;;;;;;;8.18;1.40;;;16.10;99.90;;;;;;4955930;28;20208;-75
2023/05/26 01:21:51;;;;;;;9.20;1.52;;;16.10;99.90;;;;;;4953552;28;20216;-75
2023/05/26 01:24:30;;;;;;;8.55;1.70;;;16.10;99.90;;;;;;4955568;28;20189;-75
2023/05/26 01:27:12;;;;;;;12.00;1.73;;;16.20;99.90;;;;;;4955582;28;20224;-75
2023/05/26 01:29:45;;;;;;;7.25;1.40;;;16.20;99.90;;;;;;4955346;28;20203;-77
2023/05/26 01:32:18;;;;;;;10.43;1.67;;;16.10;99.90;;;;;;4954874;29;20201;-83
2023/05/26 01:34:49;;;;;;;9.07;1.35;;;16.20;99.90;;;;;;4955193;28;20197;-77
2023/05/26 01:37:20;;;;;;;9.77;1.40;;;16.20;99.90;;;;;;4955383;28;20193;-77
2023/05/26 01:39:51;;;;;;;9.90;1.50;;;16.30;99.90;;;;;;4954733;28;20201;-76
2023/05/26 01:42:30;;;;;;;9.18;1.45;;;16.40;99.90;;;;;;4947576;29;20718;-74
2023/05/26 01:45:08;;;;;;;8.02;1.40;;;16.40;99.90;;;;;;4955116;28;20212;-75
2023/05/26 01:47:41;;;;;;;7.05;1.20;;;16.50;99.90;;;;;;4955725;28;20235;-76
2023/05/26 01:50:14;;;;;;;10.05;1.40;;;16.50;99.90;;;;;;4955103;28;20193;-75
2023/05/26 01:52:48;;;;;;;8.77;1.50;;;16.60;99.90;;;;;;4954493;28;20197;-76
2023/05/26 01:55:20;;;;;;;6.82;1.38;;;16.60;99.90;;;;;;4954604;28;20204;-81
2023/05/26 01:57:53;;;;;;;8.77;1.40;;;16.70;99.90;;;;;;4954644;28;20230;-74
2023/05/26 02:00:30;;;;;;;6.55;1.25;;;16.80;99.90;;;;;;4954980;28;20189;-76
2023/05/26 02:03:01;;;;;;;8.80;1.30;;;16.80;99.90;;;;;;4955139;28;20695;-77
2023/05/26 02:05:32;;;;;;;8.32;1.77;;;16.80;99.90;;;;;;4953582;28;20296;-72
2023/05/26 02:08:03;;;;;;;7.72;1.60;;;16.80;99.90;;;;;;4955113;28;20205;-76
2023/05/26 02:10:34;;;;;;;8.00;1.50;;;16.80;99.90;;;;;;4955015;28;20617;-75
2023/05/26 02:13:06;;;;;;;5.00;1.10;;;16.70;99.90;;;;;;4954793;28;20224;-76
2023/05/26 02:15:39;;;;;;;6.78;1.27;;;16.60;99.90;;;;;;4954969;28;20197;-76
2023/05/26 02:18:10;;;;;;;10.75;1.63;;;16.50;99.90;;;;;;4953725;28;20239;-75
2023/05/26 02:20:41;;;;;;;7.75;1.48;;;16.30;99.90;;;;;;4952108;29;20204;-75
2023/05/26 02:23:13;;;;;;;9.00;1.05;;;16.20;99.90;;;;;;4954841;28;20795;-74
2023/05/26 02:25:44;;;;;;;4.72;0.80;;;16.10;99.90;;;;;;4952942;28;20203;-75
2023/05/26 02:28:15;;;;;;;7.38;1.02;;;15.90;99.90;;;;;;4955023;28;20193;-75
2023/05/26 02:30:48;;;;;;;3.70;1.20;;;15.80;99.90;;;;;;4954960;28;20216;-75
2023/05/26 02:33:19;;;;;;;6.35;1.10;;;15.80;99.90;;;;;;4952959;28;20197;-76
2023/05/26 02:35:50;;;;;;;5.30;1.00;;;15.70;99.90;;;;;;4935704;29;20193;-75
2023/05/26 02:38:22;;;;;;;6.68;1.20;;;15.50;99.90;;;;;;4940206;29;20200;-76
2023/05/26 02:40:53;;;;;;;5.50;0.90;;;15.40;99.90;;;;;;4954771;28;20200;-74
2023/05/26 02:43:25;;;;;;;6.00;1.23;;;15.30;99.90;;;;;;4954481;28;20714;-76
2023/05/26 02:45:58;;;;;;;5.78;1.15;;;15.20;99.90;;;;;;4956427;28;20193;-75
2023/05/26 02:48:29;;;;;;;5.47;1.20;;;15.20;99.90;;;;;;4956615;28;20197;-76
2023/05/26 02:51:00;;;;;;;6.60;1.10;;;15.20;99.90;;;;;;4958398;28;20189;-75
2023/05/26 02:53:32;;;;;;;6.18;1.13;;;15.10;99.90;;;;;;4958195;28;20197;-74
2023/05/26 02:56:03;;;;;;;7.20;0.98;;;15.10;99.90;;;;;;4957336;28;20204;-75
2023/05/26 02:58:35;;;;;;;7.03;0.93;;;15.00;99.90;;;;;;4957454;28;20225;-75
2023/05/26 03:01:08;;;;;;;8.80;1.10;;;15.10;99.90;;;;;;4958123;28;20201;-75
2023/05/26 03:03:39;;;;;;;7.35;1.35;;;15.00;99.90;;;;;;4957180;28;20218;-74
2023/05/26 03:06:10;;;;;;;3.83;1.20;;;15.00;99.90;;;;;;4957974;28;20197;-75
2023/05/26 03:08:41;;;;;;;4.53;1.00;;;15.00;99.90;;;;;;4957226;28;20574;-76
2023/05/26 03:11:12;;;;;;;6.50;1.23;;;15.00;99.90;;;;;;4957791;28;20193;-76
2023/05/26 03:13:43;;;;;;;11.13;1.35;;;15.00;99.90;;;;;;4957065;28;20193;-76
2023/05/26 03:16:16;;;;;;;5.47;0.98;;;15.00;99.90;;;;;;4955922;28;20241;-75
2023/05/26 03:18:48;;;;;;;8.75;1.30;;;15.10;99.90;;;;;;4953910;29;20208;-75
2023/05/26 03:21:19;;;;;;;6.50;1.30;;;15.20;99.90;;;;;;4957777;28;20193;-75
2023/05/26 03:23:50;;;;;;;7.65;1.10;;;15.30;99.90;;;;;;4957637;28;20227;-75
2023/05/26 03:26:22;;;;;;;3.53;1.15;;;15.40;99.90;;;;;;4956619;28;20216;-75
2023/05/26 03:28:53;;;;;;;6.68;1.15;;;15.40;99.90;;;;;;4956809;28;20201;-75
2023/05/26 03:31:26;;;;;;;8.68;1.48;;;15.40;99.90;;;;;;4957593;28;20193;-76
2023/05/26 03:33:57;;;;;;;6.47;1.20;;;15.30;99.90;;;;;;4957372;28;20283;-75
2023/05/26 03:36:28;;;;;;;7.32;1.20;;;15.30;99.90;;;;;;4957427;28;20325;-75
2023/05/26 03:38:59;;;;;;;6.90;1.23;;;15.30;99.90;;;;;;4956040;28;20641;-75
2023/05/26 03:41:32;;;;;;;7.22;1.13;;;15.30;99.90;;;;;;4956564;28;20197;-75
2023/05/26 03:44:04;;;;;;;5.40;1.00;;;15.40;99.90;;;;;;4957253;28;20224;-76
2023/05/26 03:46:37;;;;;;;5.70;0.90;;;15.30;99.90;;;;;;4956575;28;20207;-75
2023/05/26 03:49:08;;;;;;;5.72;1.08;;;15.30;99.90;;;;;;4955258;28;20197;-75
2023/05/26 03:51:39;;;;;;;4.70;1.00;;;15.30;99.90;;;;;;4953649;28;20679;-75
2023/05/26 03:54:10;;;;;;;7.35;1.20;;;15.30;99.90;;;;;;4956270;28;20213;-75
2023/05/26 03:56:41;;;;;;;3.63;1.00;;;15.30;99.90;;;;;;4956160;28;20209;-74
2023/05/26 03:59:12;;;;;;;5.13;1.00;;;15.40;99.90;;;;;;4956895;28;20232;-75
2023/05/26 04:01:45;;;;;;;4.45;1.00;;;15.30;99.90;;;;;;4956998;28;20557;-75
2023/05/26 04:04:16;;;;;;;5.57;1.02;;;15.40;99.90;;;;;;4955557;28;20727;-74
2023/05/26 04:06:48;;;;;;;4.45;0.98;;;15.40;99.90;;;;;;4955567;28;20193;-75
2023/05/26 04:09:19;;;;;;;10.18;1.38;;;15.40;99.90;;;;;;4956160;28;20208;-75
2023/05/26 04:11:50;;;;;;;7.10;1.10;;;15.40;99.90;;;;;;4956960;28;20197;-75
2023/05/26 04:14:21;;;;;;;5.57;1.23;;;15.40;99.90;;;;;;4956764;28;20200;-75
2023/05/26 04:16:54;;;;;;;4.40;0.98;;;15.40;99.90;;;;;;4955723;28;20255;-76
2023/05/26 04:19:25;;;;;;;4.88;1.00;;;15.40;99.90;;;;;;4956738;28;20285;-75
2023/05/26 04:21:57;;;;;;;7.90;0.95;;;15.40;99.90;;;;;;4956706;28;20550;-75
2023/05/26 04:24:28;;;;;;;5.05;1.00;;;15.40;99.90;;;;;;4955712;29;20227;-75
2023/05/26 04:26:59;;;;;;;4.10;0.80;;;15.40;99.90;;;;;;4956921;28;20204;-76
2023/05/26 04:29:30;;;;;;;5.72;1.08;;;15.40;99.90;;;;;;4956542;28;20203;-76
2023/05/26 04:32:03;;;;;;;6.32;1.00;;;15.40;99.90;;;;;;4955820;28;20205;-75
2023/05/26 04:34:34;;;;;;;7.53;1.00;;;15.30;99.90;;;;;;4956383;28;20223;-76
2023/05/26 04:37:08;;;;;;;2.83;0.98;;;15.30;99.90;;;;;;4956248;28;20204;-76
2023/05/26 04:39:39;;;;;;;3.80;0.80;;;15.30;99.90;;;;;;4955357;28;20200;-75
2023/05/26 04:42:10;;;;;;;5.57;0.80;;;15.30;99.90;;;;;;4956266;28;20192;-75
2023/05/26 04:44:43;;;;;;;4.13;0.80;;;15.20;99.90;;;;;;4955298;28;20571;-76
2023/05/26 04:47:16;;;;;;;6.90;1.08;;;15.30;99.90;;;;;;4956140;28;20197;-75
2023/05/26 04:49:47;;;;;;;6.75;0.95;;;15.30;99.90;;;;;;4956070;28;20712;-76
2023/05/26 04:52:19;;;;;;;5.65;1.23;;;15.30;99.90;;;;;;4955899;28;20193;-75
2023/05/26 04:54:50;;;;;;;7.10;1.20;;;15.30;99.90;;;;;;4955160;28;20197;-75
2023/05/26 04:57:21;;;;;;;8.52;1.05;;;15.30;99.90;;;;;;4955857;28;20198;-75
2023/05/26 04:59:53;;;;;;;6.25;0.88;;;15.30;99.90;;;;;;4956194;28;20287;-75
2023/05/26 05:02:26;;;;;;;7.68;0.93;;;15.40;99.90;;;;;;4955879;28;20284;-75
2023/05/26 05:04:57;;;;;;;3.92;1.17;;;15.30;99.90;;;;;;4955807;28;20193;-76
2023/05/26 05:07:28;;;;;;;5.97;1.10;;;15.30;99.90;;;;;;4954854;28;20204;-75
2023/05/26 05:09:59;;;;;;;5.00;1.02;;;15.40;99.90;;;;;;4955163;28;20205;-76
2023/05/26 05:12:31;;;;;;;8.40;1.08;;;15.50;99.90;;;;;;4955821;28;20203;-75
2023/05/26 05:15:02;;;;;;;5.05;1.20;;;15.50;99.90;;;;;;4955678;28;20219;-75
2023/05/26 05:17:35;;;;;;;10.32;1.00;;;15.60;99.90;;;;;;4955568;28;20266;-75
2023/05/26 05:20:07;;;;;;;7.60;1.20;;;15.60;99.90;;;;;;4953689;28;20193;-76
2023/05/26 05:22:38;;;;;;;4.65;1.30;;;15.60;99.90;;;;;;4955332;28;20188;-76
2023/05/26 05:25:09;;;;;;;8.07;1.10;;;15.50;99.90;;;;;;4955686;28;20197;-76
2023/05/26 05:27:41;;;;;;;4.40;1.23;;;15.50;99.90;;;;;;4955561;28;20193;-75
2023/05/26 05:30:14;;;;;;;5.15;1.30;;;15.40;99.90;;;;;;4970318;28;20665;-75
2023/05/26 05:32:47;;;;;;;7.90;1.30;;;15.40;99.90;;;;;;4954612;28;20204;-75
2023/05/26 05:35:18;;;;;;;4.85;0.98;;;15.30;99.90;;;;;;4954768;28;20201;-76
2023/05/26 05:37:49;;;;;;;8.55;1.50;;;15.30;99.90;;;;;;4954553;28;20285;-75
2023/05/26 05:40:21;;;;;;;6.75;1.02;;;15.30;99.90;;;;;;4955418;28;20651;-75
2023/05/26 05:42:52;;;;;;;6.78;1.40;;;15.30;99.90;;;;;;4955193;28;20193;-75
2023/05/26 05:45:23;;;;;;;7.00;1.70;;;15.30;99.90;;;;;;4955726;28;20193;-75
2023/05/26 05:47:56;;;;;;;6.60;1.23;;;15.30;99.90;;;;;;4953790;28;20643;-75
2023/05/26 05:50:27;;;;;;;4.82;1.10;;;15.20;99.90;;;;;;4954199;28;20201;-75
2023/05/26 05:52:58;;;;;;;4.20;0.88;;;15.10;99.90;;;;;;4955203;28;20227;-76
2023/05/26 05:55:29;;;;;;;3.92;0.90;;;15.10;99.90;;;;;;4955249;28;20193;-75
2023/05/26 05:58:01;;;;;;;10.57;1.83;;;15.10;99.90;;;;;;4955151;28;20781;-75
2023/05/26 06:00:32;;;;;;;7.10;1.20;;;15.10;99.90;;;;;;4953392;29;20200;-76
2023/05/26 06:03:05;;;;;;;8.13;1.30;;;15.00;99.90;;;;;;4955056;28;20217;-75
2023/05/26 06:05:36;;;;;;;5.30;1.10;;;15.00;99.90;;;;;;4954995;28;20189;-75
2023/05/26 06:08:07;;;;;;;7.72;1.27;;;14.90;99.90;;;;;;4953903;28;20197;-75
2023/05/26 06:10:38;;;;;;;7.63;1.17;;;14.90;99.90;;;;;;4954534;28;20215;-75
2023/05/26 06:13:09;;;;;;;6.70;1.00;;;14.90;99.90;;;;;;4955041;28;20719;-75
2023/05/26 06:15:40;;;;;;;7.22;1.27;;;14.90;99.90;;;;;;4955138;28;20197;-75
2023/05/26 06:18:14;;;;;;;4.68;1.15;;;14.90;99.90;;;;;;4946001;28;20347;-76
2023/05/26 06:20:45;;;;;;;5.75;1.92;;;14.90;99.90;;;;;;4953955;28;20201;-75
2023/05/26 06:23:16;;;;;;;5.88;1.20;;;14.80;99.90;;;;;;4958896;28;20315;-76
2023/05/26 06:25:47;;;;;;;8.07;1.50;;;14.90;99.90;;;;;;4958002;28;22009;-75
2023/05/26 06:28:19;;;;;;;8.77;1.20;;;14.80;99.90;;;;;;4952400;28;20215;-75
2023/05/26 06:30:50;;;;;;;7.45;1.20;;;14.80;99.90;;;;;;4952015;29;20207;-76
2023/05/26 06:33:23;;;;;;;5.45;1.30;;;14.80;99.90;;;;;;4956667;28;20208;-76
2023/05/26 06:35:54;;;;;;;6.97;1.38;;;14.80;99.90;;;;;;4956975;28;20203;-75
2023/05/26 06:38:25;;;;;;;10.93;1.50;;;14.80;99.90;;;;;;4958221;28;20207;-75
2023/05/26 06:40:56;;;;;;;8.05;1.20;;;14.70;99.90;;;;;;4956849;28;20207;-75
2023/05/26 06:43:27;;;;;;;5.93;1.10;;;14.70;99.90;;;;;;4964144;28;20228;-75
2023/05/26 06:45:58;;;;;;;6.25;1.33;;;14.70;99.90;;;;;;4957995;28;20196;-76
2023/05/26 06:48:31;;;;;;;8.27;1.27;;;14.70;99.90;;;;;;4957481;29;20211;-75
2023/05/26 06:51:03;;;;;;;9.07;1.40;;;14.70;99.90;;;;;;4958349;28;20396;-76
2023/05/26 06:53:34;;;;;;;5.55;1.27;;;14.70;99.90;;;;;;4955401;28;20209;-76
2023/05/26 06:56:05;;;;;;;8.00;1.20;;;14.70;99.90;;;;;;4955173;29;20279;-77
2023/05/26 06:58:36;;;;;;;4.93;1.23;;;14.70;99.90;;;;;;4957166;28;20681;-76
2023/05/26 07:01:08;;;;;;;5.18;1.05;;;14.70;99.90;;;;;;4957817;28;20197;-76
2023/05/26 07:03:41;;;;;;;4.05;1.08;;;14.70;99.90;;;;;;4954234;28;20225;-76
2023/05/26 07:06:12;;;;;;;7.85;1.10;;;14.70;99.90;;;;;;4951403;29;20196;-76
2023/05/26 07:08:43;;;;;;;5.18;1.35;;;14.60;99.90;;;;;;4957866;28;20204;-76
2023/05/26 07:11:14;;;;;;;4.43;1.13;;;14.60;99.90;;;;;;4957683;28;20209;-76
2023/05/26 07:13:45;;;;;;;8.23;1.13;;;14.50;99.90;;;;;;4957596;28;20709;-76
2023/05/26 07:16:17;;;;;;;5.40;1.05;;;14.50;99.90;;;;;;4957714;28;20648;-76
2023/05/26 07:18:50;;;;;;;7.20;1.25;;;14.40;99.90;;;;;;4957447;28;20201;-76
2023/05/26 07:21:22;;;;;;;6.72;1.50;;;14.40;99.90;;;;;;4957520;28;20292;-76
2023/05/26 07:23:53;;;;;;;5.13;1.20;;;14.40;99.90;;;;;;4957614;28;20650;-76
2023/05/26 07:26:24;;;;;;;6.80;1.15;;;14.30;99.90;;;;;;4957640;28;20205;-77
2023/05/26 07:28:56;;;;;;;6.90;1.25;;;14.20;99.90;;;;;;4961348;28;20192;-76
2023/05/26 07:31:27;;;;;;;5.07;1.27;;;14.20;99.90;;;;;;4945198;28;20207;-76
2023/05/26 07:34:00;;;;;;;5.40;1.25;;;14.10;99.90;;;;;;4957146;28;20205;-75
2023/05/26 07:36:32;;;;;;;7.13;1.20;;;14.10;99.90;;;;;;4954727;28;20199;-76
2023/05/26 07:39:03;;;;;;;6.38;1.40;;;14.00;99.90;;;;;;4955087;28;20200;-76
2023/05/26 07:41:34;;;;;;;9.73;1.48;;;14.00;99.90;;;;;;4954195;28;20207;-75
2023/05/26 07:44:05;;;;;;;6.63;1.50;;;14.00;99.90;;;;;;4954280;28;20209;-75
2023/05/26 07:46:36;;;;;;;9.82;1.75;;;13.90;99.90;;;;;;4954180;28;20203;-77
2023/05/26 07:49:09;;;;;;;5.07;1.75;;;13.90;99.90;;;;;;4958016;28;20204;-75
2023/05/26 07:51:40;;;;;;;8.50;1.63;;;13.80;99.90;;;;;;4955521;28;20207;-76
2023/05/26 07:54:11;;;;;;;7.32;1.60;;;13.80;99.90;;;;;;4955628;28;20567;-75
2023/05/26 07:56:42;;;;;;;6.60;1.80;;;13.70;99.90;;;;;;4956267;28;20201;-75
2023/05/26 07:59:14;;;;;;;6.05;1.38;;;13.70;99.90;;;;;;4956566;28;20240;-75
2023/05/26 08:01:45;;;;;;;5.18;1.30;;;13.70;99.90;;;;;;4955109;28;20232;-75
2023/05/26 08:04:18;;;;;;;6.70;1.77;;;13.60;99.90;;;;;;4950600;28;20232;-76
2023/05/26 08:06:49;;;;;;;4.97;1.48;;;13.60;99.90;;;;;;4950396;28;20200;-76
2023/05/26 08:09:20;;;;;;;8.30;2.13;;;13.60;99.90;;;;;;4956820;28;20201;-75
2023/05/26 08:11:51;;;;;;;6.47;1.90;;;13.60;99.90;;;;;;4952790;28;20228;-76
2023/05/26 08:14:23;;;;;;;6.65;2.10;;;13.50;99.90;;;;;;4955807;28;20205;-76
2023/05/26 08:16:54;;;;;;;6.65;1.80;;;13.50;99.90;;;;;;4955370;28;20260;-76
2023/05/26 08:19:27;;;;;;;6.15;1.50;;;13.40;99.90;;;;;;4955715;28;20211;-76
2023/05/26 08:21:58;;;;;;;4.18;1.65;;;13.40;99.90;;;;;;4954612;28;20201;-77
2023/05/26 08:24:29;;;;;;;9.02;1.80;;;13.40;99.90;;;;;;4955929;28;20217;-76
2023/05/26 08:27:00;;;;;;;6.63;1.88;;;13.30;99.90;;;;;;4954330;28;20201;-75
2023/05/26 08:29:32;;;;;;;4.68;1.67;;;13.30;99.90;;;;;;4955940;28;20587;-76
2023/05/26 08:32:03;;;;;;;5.65;1.88;;;13.30;99.90;;;;;;4955378;28;20201;-76
2023/05/26 08:34:36;;;;;;;5.78;1.83;;;13.30;99.90;;;;;;4953771;28;20975;-77
2023/05/26 08:37:07;;;;;;;4.35;1.48;;;13.20;99.90;;;;;;4952138;28;20201;-76
2023/05/26 08:39:38;;;;;;;3.85;1.75;;;13.20;99.90;;;;;;4954560;28;20211;-76
2023/05/26 08:42:11;;;;;;;6.57;1.70;;;13.20;99.90;;;;;;4954770;28;20201;-76
2023/05/26 08:44:43;;;;;;;4.53;1.70;;;13.20;99.90;;;;;;4954140;28;20221;-76
2023/05/26 08:47:15;;;;;;;4.00;1.70;;;13.20;99.90;;;;;;4956127;28;20205;-76
2023/05/26 08:49:56;;;;;;;10.55;2.10;;;13.20;99.90;;;;;;4954218;29;20570;-76
2023/05/26 08:52:27;;;;;;;5.28;1.80;;;13.20;99.90;;;;;;4955269;28;20280;-76
2023/05/26 08:54:59;;;;;;;7.47;2.35;;;13.10;99.90;;;;;;4954430;29;20208;-76
2023/05/26 08:57:32;;;;;;;6.55;2.20;;;13.10;99.90;;;;;;4952908;29;20225;-75
2023/05/26 09:00:07;;;;;;;8.77;2.55;;;13.00;99.90;;;;;;4949053;29;20657;-76
2023/05/26 09:02:38;;;;;;;9.15;2.97;;;13.00;99.90;;;;;;4953936;28;20204;-76
2023/05/26 09:05:12;;;;;;;4.75;2.08;;;13.00;99.90;;;;;;4953963;28;20580;-76
2023/05/26 09:07:43;;;;;;;7.70;2.42;;;12.90;99.90;;;;;;4955779;28;20197;-76
2023/05/26 09:10:27;;;;;;;5.78;2.38;;;12.90;99.90;;;;;;4948056;28;20210;-75
2023/05/26 09:13:09;;;;;;;5.82;2.15;;;12.90;99.90;;;;;;4950606;28;20208;-75
2023/05/26 09:15:40;;;;;;;8.80;2.40;;;12.90;99.90;;;;;;4952770;28;20201;-75
2023/05/26 09:18:13;;;;;;;6.45;2.13;;;12.80;99.90;;;;;;4952516;28;20232;-76
2023/05/26 09:20:46;;;;;;;8.77;2.00;;;12.80;99.90;;;;;;4954290;28;20708;-75
2023/05/26 09:23:19;;;;;;;7.25;2.13;;;12.80;99.90;;;;;;4953555;28;20201;-76
2023/05/26 09:25:52;;;;;;;9.75;2.40;;;12.80;99.90;;;;;;4953869;28;20231;-76
2023/05/26 09:28:25;;;;;;;6.18;2.17;;;12.70;99.90;;;;;;4960878;28;20225;-76
2023/05/26 09:30:56;;;;;;;8.65;2.42;;;12.70;99.90;;;;;;4953837;28;20220;-76
2023/05/26 09:33:28;;;;;;;3.65;1.88;;;12.70;99.90;;;;;;4953524;28;20637;-76
2023/05/26 09:36:04;;;;;;;9.63;2.20;;;12.60;99.90;;;;;;4952793;28;20204;-76
2023/05/26 09:38:36;;;;;;;7.03;2.22;;;12.60;99.90;;;;;;4953531;28;20636;-75
2023/05/26 09:41:07;;;;;;;5.25;2.03;;;12.50;99.90;;;;;;4953629;28;20197;-77
2023/05/26 09:43:39;;;;;;;5.20;2.08;;;12.50;99.90;;;;;;4953344;28;20193;-77
2023/05/26 09:46:24;;;;;;;6.65;2.30;;;12.50;99.90;;;;;;4954124;28;20220;-76
2023/05/26 09:48:56;;;;;;;7.53;2.47;;;12.40;99.90;;;;;;4955400;28;20248;-77
2023/05/26 09:51:35;;;;;;;7.05;2.50;;;12.40;99.90;;;;;;4952898;28;20193;-77
2023/05/26 09:54:08;;;;;;;6.18;2.63;;;12.40;99.90;;;;;;4954366;28;20287;-77
2023/05/26 09:56:47;;;;;;;10.43;2.70;;;12.40;99.90;;;;;;4954321;28;20205;-76
2023/05/26 09:59:21;;;;;;;10.57;3.10;;;12.30;99.90;;;;;;4955359;28;20671;-76
2023/05/26 10:01:54;;;;;;;9.10;2.60;;;12.30;99.90;;;;;;4955209;28;20192;-76
2023/05/26 10:04:26;;;;;;;7.97;2.70;;;12.20;99.90;;;;;;4954101;28;20246;-77
2023/05/26 10:07:00;;;;;;;7.53;2.90;;;12.20;99.90;;;;;;4955171;28;20558;-77
2023/05/26 10:09:33;;;;;;;8.23;2.60;;;12.10;99.90;;;;;;4955110;28;20188;-77
2023/05/26 10:12:09;;;;;;;10.00;3.22;;;12.10;99.90;;;;;;4949734;29;20201;-77
2023/05/26 10:14:41;;;;;;;6.65;2.95;;;12.10;99.90;;;;;;4937633;29;20197;-76
2023/05/26 10:17:13;;;;;;;7.22;3.03;;;12.00;99.90;;;;;;4953584;28;20232;-76
2023/05/26 10:19:45;;;;;;;9.20;2.78;;;12.00;99.90;;;;;;4954818;29;20211;-76
2023/05/26 10:22:25;;;;;;;8.10;3.33;;;11.90;99.90;;;;;;4954304;28;20691;-76
2023/05/26 10:25:03;;;;;;;7.20;3.15;;;11.90;99.90;;;;;;4953884;28;20691;-76
2023/05/26 10:27:51;;;;;;;6.63;3.03;;;11.80;99.90;;;;;;4953965;28;20235;-76
2023/05/26 10:30:25;;;;;;;7.57;3.20;;;11.80;99.90;;;;;;4954313;28;20211;-76
2023/05/26 10:32:57;;;;;;;7.88;3.33;;;11.70;99.90;;;;;;4953432;28;20201;-76
2023/05/26 10:35:30;;;;;;;6.80;3.22;;;11.70;99.90;;;;;;4955589;28;20189;-76
2023/05/26 10:38:14;;;;;;;8.30;2.80;;;11.60;99.90;;;;;;4954893;28;20208;-76
2023/05/26 10:40:53;;;;;;;9.38;3.10;;;11.60;99.90;;;;;;4954699;28;20193;-77
2023/05/26 10:43:26;;;;;;;9.57;3.33;;;11.50;99.90;;;;;;4955166;28;20641;-76
2023/05/26 10:45:59;;;;;;;9.32;3.10;;;11.50;99.90;;;;;;4953706;29;20236;-76
2023/05/26 10:48:37;;;;;;;8.65;3.38;;;11.40;99.90;;;;;;4954819;28;20204;-76
2023/05/26 10:51:10;;;;;;;10.98;3.53;;;11.40;99.90;;;;;;4953773;28;20204;-76
2023/05/26 10:53:45;;;;;;;8.80;3.50;;;11.40;99.90;;;;;;4954031;29;20209;-76
2023/05/26 10:56:18;;;;;;;9.90;3.50;;;11.40;99.90;;;;;;4954516;28;20280;-77
2023/05/26 10:58:52;;;;;;;12.65;4.18;;;11.30;99.90;;;;;;4954690;28;20645;-77
2023/05/26 11:01:30;;;;;;;7.40;3.00;;;11.30;99.90;;;;;;4954588;28;20215;-76
2023/05/26 11:04:11;;;;;;;6.30;3.30;;;11.20;99.90;;;;;;4954567;28;20562;-76
2023/05/26 11:06:51;;;;;;;7.88;3.30;;;11.20;99.90;;;;;;4955147;28;20313;-77
2023/05/26 11:09:28;;;;;;;5.80;3.13;;;11.10;99.90;;;;;;4957070;28;20288;-77
2023/05/26 11:12:01;;;;;;;6.47;2.88;;;11.10;99.90;;;;;;4958013;28;20200;-77
2023/05/26 11:14:33;;;;;;;8.88;2.85;;;11.10;99.90;;;;;;4957878;28;20203;-78
2023/05/26 11:17:06;;;;;;;7.78;3.00;;;11.10;99.90;;;;;;4957309;28;20244;-77
2023/05/26 11:19:39;;;;;;;6.88;2.88;;;11.00;99.90;;;;;;4957782;29;20209;-77
2023/05/26 11:22:12;;;;;;;3.75;2.35;;;11.00;99.90;;;;;;4957939;28;20208;-76
2023/05/26 11:24:46;;;;;;;8.45;2.40;;;11.00;99.90;;;;;;4956876;28;20204;-77
2023/05/26 11:27:17;;;;;;;6.53;2.35;;;11.00;99.90;;;;;;4957453;28;20231;-76
2023/05/26 11:29:51;;;;;;;4.95;2.30;;;11.00;99.90;;;;;;4956356;28;20561;-77
2023/05/26 11:32:22;;;;;;;7.28;2.38;;;11.00;99.90;;;;;;4957666;28;20193;-77
2023/05/26 11:34:53;;;;;;;6.57;1.90;;;10.90;99.90;;;;;;4956751;28;20214;-77
2023/05/26 11:37:25;;;;;;;8.30;2.03;;;10.90;99.90;;;;;;4957691;28;20641;-77
2023/05/26 11:39:58;;;;;;;9.13;2.50;;;10.90;99.90;;;;;;4957364;28;20203;-77
2023/05/26 11:42:30;;;;;;;5.60;2.42;;;10.80;99.90;;;;;;4957562;28;20203;-77
2023/05/26 11:45:04;;;;;;;5.22;2.00;;;10.80;99.90;;;;;;4956621;28;20304;-76
2023/05/26 11:47:37;;;;;;;6.03;1.95;;;10.80;99.90;;;;;;4956886;28;20307;-75
2023/05/26 11:50:11;;;;;;;8.52;2.35;;;10.80;99.90;;;;;;4957806;28;20193;-76
2023/05/26 11:52:45;;;;;;;3.78;1.80;;;10.80;99.90;;;;;;4954721;29;20200;-76
2023/05/26 11:55:20;;;;;;;5.75;1.70;;;10.80;99.90;;;;;;4945974;29;20217;-76
2023/05/26 11:57:53;;;;;;;4.43;1.77;;;10.80;99.90;;;;;;4956682;29;20232;-76
2023/05/26 12:00:25;;;;;;;5.20;2.00;;;10.80;99.90;;;;;;4955703;28;20208;-76
2023/05/26 12:02:56;;;;;;;6.55;1.55;;;10.80;99.90;;;;;;4956973;28;20193;-76
2023/05/26 12:05:29;;;;;;;7.72;1.70;;;10.80;99.90;;;;;;4957075;28;20222;-76
2023/05/26 12:08:07;;;;;;;7.15;1.88;;;10.70;99.90;;;;;;4956128;28;20204;-76
2023/05/26 12:10:42;;;;;;;3.28;1.70;;;10.70;99.90;;;;;;4956845;28;20209;-76
2023/05/26 12:13:13;;;;;;;6.22;1.63;;;10.70;99.90;;;;;;4957636;28;20193;-76
2023/05/26 12:15:55;;;;;;;4.55;1.50;;;10.60;99.90;;;;;;4953794;28;20288;-76
2023/05/26 12:18:27;;;;;;;5.05;1.50;;;10.60;99.90;;;;;;4950800;28;20672;-77
2023/05/26 12:20:58;;;;;;;4.82;2.00;;;10.60;99.90;;;;;;4955354;28;20197;-76
2023/05/26 12:23:29;;;;;;;6.57;1.88;;;10.50;99.90;;;;;;4954282;28;21194;-77
2023/05/26 12:26:02;;;;;;;7.28;1.95;;;10.60;99.90;;;;;;4955499;28;20228;-76
2023/05/26 12:28:33;;;;;;;4.60;1.95;;;10.60;99.90;;;;;;4955801;29;20307;-76
2023/05/26 12:31:04;;;;;;;4.18;1.98;;;10.50;99.90;;;;;;4954529;28;20200;-76
2023/05/26 12:33:35;;;;;;;5.28;1.80;;;10.50;99.90;;;;;;4951681;29;20657;-77
2023/05/26 12:36:07;;;;;;;3.70;1.75;;;10.50;99.90;;;;;;4953209;29;20308;-76
2023/05/26 12:38:45;;;;;;;5.63;1.90;;;10.50;99.90;;;;;;4950474;29;20653;-75
2023/05/26 12:41:18;;;;;;;7.55;1.90;;;10.50;99.90;;;;;;4955082;28;20196;-76
2023/05/26 12:43:49;;;;;;;4.57;2.17;;;10.50;99.90;;;;;;4955133;28;20657;-76
2023/05/26 12:46:20;;;;;;;6.05;2.10;;;10.50;99.90;;;;;;4952869;28;20221;-76
2023/05/26 12:48:52;;;;;;;5.03;2.00;;;10.40;99.90;;;;;;4952270;28;20205;-76
2023/05/26 12:51:23;;;;;;;5.60;2.50;;;10.40;99.90;;;;;;4953163;28;20197;-76
2023/05/26 12:53:54;;;;;;;5.40;2.10;;;10.40;99.90;;;;;;4956092;28;20275;-75
2023/05/26 12:56:27;;;;;;;9.30;2.20;;;10.30;99.90;;;;;;4956205;28;20196;-76
2023/05/26 12:58:59;;;;;;;4.47;2.00;;;10.30;99.90;;;;;;4955329;28;20232;-76
2023/05/26 13:01:30;;;;;;;5.88;2.33;;;10.30;99.90;;;;;;4954879;29;20230;-76
2023/05/26 13:04:02;;;;;;;5.22;2.22;;;10.30;99.90;;;;;;4956038;29;20283;-76
2023/05/26 13:06:33;;;;;;;6.05;2.38;;;10.20;99.90;;;;;;4953621;28;20239;-77
2023/05/26 13:09:05;;;;;;;5.65;2.35;;;10.20;99.90;;;;;;4950556;29;20280;-77
2023/05/26 13:11:38;;;;;;;5.35;2.38;;;10.20;99.90;;;;;;4954637;28;20200;-76